createdAt,value
2024-03-12T00:02:11.828Z,2.92
2024-03-12T00:04:41.933Z,2.80
2024-03-12T00:07:11.021Z,2.90
2024-03-12T00:09:39.334Z,3.38
2024-03-12T00:12:09.694Z,2.97
2024-03-12T00:14:37.830Z,2.92
2024-03-12T00:17:09.166Z,2.80
2024-03-12T00:19:38.231Z,3.42
2024-03-12T00:22:06.514Z,3.38
2024-03-12T00:24:35.130Z,3.17
2024-03-12T00:27:03.305Z,2.55
2024-03-12T00:29:32.748Z,3.40
2024-03-12T00:32:00.811Z,3.05
2024-03-12T00:34:29.011Z,3.92
2024-03-12T00:36:57.620Z,3.05
2024-03-12T00:39:26.600Z,3.15
2024-03-12T00:41:55.465Z,3.90
2024-03-12T00:44:24.839Z,3.75
2024-03-12T00:46:55.251Z,3.30
2024-03-12T00:49:23.259Z,3.38
2024-03-12T00:51:51.408Z,4.13
2024-03-12T00:54:19.697Z,4.60
2024-03-12T00:56:49.748Z,4.00
2024-03-12T00:59:19.642Z,4.20
2024-03-12T01:01:48.995Z,3.95
2024-03-12T01:04:18.356Z,3.90
2024-03-12T01:06:46.871Z,3.83
2024-03-12T01:09:14.952Z,4.20
2024-03-12T01:11:43.047Z,4.40
2024-03-12T01:14:11.907Z,4.07
2024-03-12T01:16:39.976Z,4.57
2024-03-12T01:19:09.130Z,4.25
2024-03-12T01:21:38.594Z,4.03
2024-03-12T01:24:08.509Z,5.05
2024-03-12T01:26:36.832Z,4.55
2024-03-12T01:29:06.100Z,4.53
2024-03-12T01:31:34.136Z,4.57
2024-03-12T01:34:02.200Z,4.10
2024-03-12T01:36:35.806Z,4.25
2024-03-12T01:39:09.239Z,3.80
2024-03-12T01:41:43.064Z,4.30
2024-03-12T01:44:11.538Z,4.03
2024-03-12T01:46:40.925Z,3.67
2024-03-12T01:49:10.872Z,4.07
2024-03-12T01:51:39.646Z,3.92
2024-03-12T01:54:10.052Z,4.10
2024-03-12T01:56:38.221Z,4.10
2024-03-12T01:59:06.278Z,4.00
2024-03-12T02:01:34.429Z,3.70
2024-03-12T02:04:05.312Z,3.45
2024-03-12T02:06:34.000Z,4.35
2024-03-12T02:09:04.611Z,3.42
2024-03-12T02:11:34.144Z,3.85
2024-03-12T02:14:02.187Z,3.72
2024-03-12T02:16:30.146Z,4.60
2024-03-12T02:18:58.237Z,4.15
2024-03-12T02:21:26.367Z,3.85
2024-03-12T02:23:55.867Z,4.32
2024-03-12T02:26:25.773Z,5.00
2024-03-12T02:28:53.915Z,4.53
2024-03-12T02:31:22.367Z,4.25
2024-03-12T02:33:50.763Z,4.30
2024-03-12T02:36:21.350Z,4.60
2024-03-12T02:38:50.766Z,4.78
2024-03-12T02:41:22.997Z,4.57
2024-03-12T02:43:53.171Z,4.88
2024-03-12T02:46:23.693Z,4.97
2024-03-12T02:48:52.701Z,5.57
2024-03-12T02:51:21.000Z,4.93
2024-03-12T02:53:48.993Z,4.82
2024-03-12T02:56:17.576Z,5.30
2024-03-12T02:58:47.203Z,4.90
2024-03-12T03:01:16.713Z,5.32
2024-03-12T03:03:44.051Z,5.03
2024-03-12T03:06:12.174Z,5.25
2024-03-12T03:08:40.673Z,4.90
2024-03-12T03:11:08.986Z,4.65
2024-03-12T03:13:37.016Z,5.32
2024-03-12T03:16:07.583Z,4.85
2024-03-12T03:18:35.909Z,5.20
2024-03-12T03:21:05.508Z,5.57
2024-03-12T03:23:35.967Z,5.03
2024-03-12T03:26:04.105Z,5.78
2024-03-12T03:28:32.158Z,5.50
2024-03-12T03:31:01.293Z,4.80
2024-03-12T03:33:32.132Z,5.35
2024-03-12T03:36:00.513Z,4.53
2024-03-12T03:38:30.092Z,5.13
2024-03-12T03:40:58.271Z,4.47
2024-03-12T03:43:27.501Z,5.38
2024-03-12T03:45:55.794Z,4.43
2024-03-12T03:48:23.949Z,4.72
2024-03-12T03:50:53.392Z,4.78
2024-03-12T03:53:21.359Z,4.22
2024-03-12T03:55:50.271Z,4.28
2024-03-12T03:58:19.624Z,5.25
2024-03-12T04:00:47.898Z,5.13
2024-03-12T04:03:15.954Z,5.35
2024-03-12T04:05:44.450Z,5.10
2024-03-12T04:08:14.067Z,5.80
2024-03-12T04:10:43.886Z,5.03
2024-03-12T04:13:12.185Z,5.40
2024-03-12T04:15:41.672Z,5.45
2024-03-12T04:18:12.479Z,4.90
2024-03-12T04:20:40.812Z,5.25
2024-03-12T04:23:08.840Z,5.70
2024-03-12T04:25:38.748Z,5.68
2024-03-12T04:28:07.994Z,5.28
2024-03-12T04:30:36.485Z,4.70
2024-03-12T04:33:05.036Z,5.30
2024-03-12T04:35:33.068Z,5.05
2024-03-12T04:38:03.348Z,5.03
2024-03-12T04:40:31.384Z,5.20
2024-03-12T04:43:00.795Z,4.88
2024-03-12T04:45:29.297Z,4.82
2024-03-12T04:47:57.262Z,5.25
2024-03-12T04:50:25.696Z,5.07
2024-03-12T04:52:53.696Z,5.90
2024-03-12T04:55:22.187Z,5.22
2024-03-12T04:57:50.678Z,4.75
2024-03-12T05:00:21.323Z,5.35
2024-03-12T05:02:50.494Z,5.57
2024-03-12T05:05:20.311Z,5.38
2024-03-12T05:07:48.832Z,5.70
2024-03-12T05:10:17.462Z,5.40
2024-03-12T05:12:45.937Z,4.75
2024-03-12T05:15:14.190Z,5.45
2024-03-12T05:17:43.892Z,5.68
2024-03-12T05:20:15.380Z,5.05
2024-03-12T05:22:44.085Z,5.35
2024-03-12T05:25:20.655Z,4.85
2024-03-12T05:27:49.164Z,4.80
2024-03-12T05:30:17.713Z,4.55
2024-03-12T05:32:49.804Z,4.10
2024-03-12T05:35:23.628Z,4.03
2024-03-12T05:38:11.894Z,5.00
2024-03-12T05:40:45.030Z,4.68
2024-03-12T05:43:31.369Z,4.82
2024-03-12T05:46:17.021Z,5.10
2024-03-12T05:48:50.617Z,4.75
2024-03-12T05:51:19.387Z,5.80
2024-03-12T05:53:47.445Z,4.68
2024-03-12T05:56:18.351Z,4.88
2024-03-12T05:58:47.797Z,5.65
2024-03-12T06:01:16.677Z,5.68
2024-03-12T06:03:46.532Z,5.55
2024-03-12T06:06:14.817Z,6.50
2024-03-12T06:08:43.005Z,6.13
2024-03-12T06:11:11.478Z,6.60
2024-03-12T06:13:40.304Z,5.00
2024-03-12T06:16:09.006Z,6.03
2024-03-12T06:18:37.507Z,5.95
2024-03-12T06:21:08.348Z,5.85
2024-03-12T06:23:37.230Z,6.70
2024-03-12T06:26:07.584Z,5.78
2024-03-12T06:28:37.267Z,6.63
2024-03-12T06:31:06.170Z,6.47
2024-03-12T06:33:34.629Z,5.95
2024-03-12T06:36:03.365Z,6.55
2024-03-12T06:38:33.110Z,7.18
2024-03-12T06:41:01.237Z,7.13
2024-03-12T06:43:29.506Z,7.03
2024-03-12T06:45:57.935Z,6.03
2024-03-12T06:48:26.231Z,6.50
2024-03-12T06:50:54.404Z,6.70
2024-03-12T06:53:22.778Z,6.75
2024-03-12T06:55:52.249Z,6.45
2024-03-12T06:58:22.808Z,6.40
2024-03-12T07:00:51.516Z,6.50
2024-03-12T07:03:22.809Z,6.03
2024-03-12T07:05:50.942Z,5.25
2024-03-12T07:08:19.576Z,6.65
2024-03-12T07:10:47.979Z,6.22
2024-03-12T07:13:18.714Z,6.57
2024-03-12T07:15:49.629Z,6.35
2024-03-12T07:18:19.615Z,6.20
2024-03-12T07:20:48.000Z,6.45
2024-03-12T07:23:16.671Z,6.30
2024-03-12T07:25:45.203Z,6.38
2024-03-12T07:28:14.355Z,5.90
2024-03-12T07:30:45.454Z,5.97
2024-03-12T07:33:13.996Z,6.57
2024-03-12T07:35:42.543Z,5.03
2024-03-12T07:38:10.633Z,6.53
2024-03-12T07:40:40.579Z,5.93
2024-03-12T07:43:08.997Z,6.35
2024-03-12T07:45:37.884Z,5.82
2024-03-12T07:48:08.887Z,7.13
2024-03-12T07:50:37.487Z,6.60
2024-03-12T07:53:07.237Z,6.50
2024-03-12T07:55:36.548Z,6.97
2024-03-12T07:58:06.248Z,5.97
2024-03-12T08:00:34.840Z,6.22
2024-03-12T08:03:02.928Z,6.70
2024-03-12T08:05:35.216Z,6.35
2024-03-12T08:08:07.686Z,6.45
2024-03-12T08:10:36.013Z,6.03
2024-03-12T08:13:06.460Z,6.55
2024-03-12T08:15:35.418Z,6.20
2024-03-12T08:18:12.762Z,6.60
2024-03-12T08:20:47.446Z,7.53
2024-03-12T08:23:15.859Z,7.13
2024-03-12T08:25:55.001Z,6.75
2024-03-12T08:28:27.527Z,7.05
2024-03-12T08:30:59.998Z,5.40
2024-03-12T08:33:33.161Z,6.88
2024-03-12T08:36:03.160Z,7.90
2024-03-12T08:38:32.371Z,6.28
2024-03-12T08:41:00.626Z,6.53
2024-03-12T08:43:28.993Z,8.15
2024-03-12T08:45:59.121Z,7.18
2024-03-12T08:48:27.342Z,8.20
2024-03-12T08:50:57.300Z,6.80
2024-03-12T08:53:27.059Z,6.85
2024-03-12T08:55:55.118Z,7.43
2024-03-12T08:58:24.314Z,7.43
2024-03-12T09:00:52.873Z,7.75
2024-03-12T09:03:22.223Z,7.97
2024-03-12T09:05:51.431Z,7.28
2024-03-12T09:08:19.608Z,9.32
2024-03-12T09:10:49.625Z,7.85
2024-03-12T09:13:20.142Z,7.90
2024-03-12T09:15:49.528Z,7.25
2024-03-12T09:18:24.429Z,7.93
2024-03-12T09:20:56.167Z,6.55
2024-03-12T09:23:24.466Z,8.32
2024-03-12T09:25:55.222Z,8.32
2024-03-12T09:28:23.584Z,8.07
2024-03-12T09:30:51.791Z,8.88
2024-03-12T09:33:19.976Z,8.13
2024-03-12T09:35:49.975Z,7.70
2024-03-12T09:38:18.141Z,8.32
2024-03-12T09:40:51.839Z,8.50
2024-03-12T09:43:25.149Z,8.20
2024-03-12T09:45:53.442Z,7.57
2024-03-12T09:48:23.092Z,7.88
2024-03-12T09:50:51.840Z,6.28
2024-03-12T09:53:21.448Z,7.45
2024-03-12T09:55:51.361Z,7.70
2024-03-12T09:58:21.554Z,7.55
2024-03-12T10:00:49.977Z,5.97
2024-03-12T10:03:20.908Z,8.73
2024-03-12T10:05:49.341Z,8.40
2024-03-12T10:08:19.157Z,8.02
2024-03-12T10:10:48.707Z,7.30
2024-03-12T10:13:18.890Z,8.48
2024-03-12T10:15:53.900Z,9.10
2024-03-12T10:18:23.330Z,8.93
2024-03-12T10:20:55.580Z,8.07
2024-03-12T10:23:27.092Z,7.53
2024-03-12T10:25:57.591Z,8.90
2024-03-12T10:28:27.786Z,7.80
2024-03-12T10:31:10.556Z,8.77
2024-03-12T10:33:42.138Z,8.48
2024-03-12T10:36:12.064Z,8.88
2024-03-12T10:38:42.236Z,9.45
2024-03-12T10:41:20.527Z,9.10
2024-03-12T10:43:51.836Z,10.07
2024-03-12T10:46:22.416Z,9.32
2024-03-12T10:48:53.008Z,9.10
2024-03-12T10:51:22.066Z,8.98
2024-03-12T10:53:51.736Z,9.75
2024-03-12T10:56:20.195Z,8.98
2024-03-12T10:58:49.790Z,9.30
2024-03-12T11:01:19.598Z,9.35
2024-03-12T11:03:51.160Z,9.50
2024-03-12T11:06:23.600Z,9.55
2024-03-12T11:08:52.081Z,9.75
2024-03-12T11:11:21.097Z,9.52
2024-03-12T11:13:51.212Z,10.55
2024-03-12T11:16:22.513Z,8.88
2024-03-12T11:18:52.159Z,9.80
2024-03-12T11:21:24.670Z,10.38
2024-03-12T11:23:57.465Z,8.45
2024-03-12T11:29:01.387Z,9.73
2024-03-12T11:31:37.691Z,9.63
2024-03-12T11:34:07.518Z,8.60
2024-03-12T11:36:46.702Z,9.55
2024-03-12T11:39:16.861Z,8.95
2024-03-12T11:42:13.375Z,9.07
2024-03-12T11:44:50.377Z,8.13
2024-03-12T11:47:30.995Z,9.18
2024-03-12T11:50:03.025Z,11.43
2024-03-12T11:52:34.747Z,11.25
2024-03-12T11:55:05.668Z,10.68
2024-03-12T11:57:42.992Z,10.25
2024-03-12T12:00:13.072Z,10.80
2024-03-12T12:02:46.392Z,10.32
2024-03-12T12:05:16.815Z,8.77
2024-03-12T12:07:45.073Z,7.57
2024-03-12T12:10:13.645Z,8.45
2024-03-12T12:12:42.368Z,7.97
2024-03-12T12:15:14.131Z,8.32
2024-03-12T12:17:42.499Z,7.32
2024-03-12T12:20:17.120Z,7.10
2024-03-12T12:22:48.537Z,6.00
2024-03-12T12:25:20.025Z,5.72
2024-03-12T12:27:49.064Z,6.78
2024-03-12T12:30:20.886Z,6.20
2024-03-12T12:32:52.157Z,6.70
2024-03-12T12:35:21.870Z,5.63
2024-03-12T12:37:52.550Z,8.57
2024-03-12T12:40:22.897Z,5.75
2024-03-12T12:42:54.775Z,4.88
2024-03-12T12:45:25.657Z,7.80
2024-03-12T12:47:53.986Z,7.63
2024-03-12T12:50:31.041Z,7.80
2024-03-12T12:53:03.336Z,6.60
2024-03-12T12:55:32.132Z,8.73
2024-03-12T12:58:02.275Z,6.70
2024-03-12T13:00:37.182Z,6.97
2024-03-12T13:03:18.775Z,8.70
2024-03-12T13:05:48.042Z,8.63
2024-03-12T13:08:30.962Z,8.90
2024-03-12T13:11:05.884Z,8.05
2024-03-12T13:13:36.289Z,9.43
2024-03-12T13:16:11.264Z,10.57
2024-03-12T13:18:41.430Z,9.27
2024-03-12T13:21:10.868Z,9.25
2024-03-12T13:23:41.017Z,10.68
2024-03-12T13:26:11.998Z,10.65
2024-03-12T13:28:40.988Z,8.32
2024-03-12T13:31:11.404Z,9.80
2024-03-12T13:33:40.033Z,10.63
2024-03-12T13:36:10.982Z,7.05
2024-03-12T13:38:41.807Z,10.73
2024-03-12T13:41:10.691Z,10.10
2024-03-12T13:43:39.726Z,11.50
2024-03-12T13:46:08.078Z,8.90
2024-03-12T13:48:38.077Z,10.70
2024-03-12T13:51:09.276Z,9.10
2024-03-12T13:53:38.826Z,11.75
2024-03-12T13:56:11.091Z,10.45
2024-03-12T13:58:41.725Z,11.73
2024-03-12T14:01:13.981Z,9.32
2024-03-12T14:03:43.523Z,11.32
2024-03-12T14:06:12.739Z,11.05
2024-03-12T14:08:40.942Z,11.65
2024-03-12T14:11:11.865Z,12.60
2024-03-12T14:13:40.655Z,8.75
2024-03-12T14:16:10.848Z,11.85
2024-03-12T14:18:39.709Z,10.63
2024-03-12T14:21:07.924Z,11.95
2024-03-12T14:23:36.040Z,12.18
2024-03-12T14:26:05.367Z,11.13
2024-03-12T14:28:35.024Z,10.88
2024-03-12T14:31:03.988Z,11.38
2024-03-12T14:33:33.227Z,12.25
2024-03-12T14:36:01.966Z,8.68
2024-03-12T14:38:30.192Z,9.02
2024-03-12T14:40:58.558Z,13.43
2024-03-12T14:43:28.018Z,11.85
2024-03-12T14:45:57.617Z,13.20
2024-03-12T14:48:25.741Z,13.32
2024-03-12T14:50:54.522Z,13.00
2024-03-12T14:53:23.126Z,10.07
2024-03-12T14:55:51.411Z,19.75
2024-03-12T14:58:19.823Z,12.65
2024-03-12T15:00:48.175Z,12.43
2024-03-12T15:03:20.084Z,14.32
2024-03-12T15:05:49.340Z,14.02
2024-03-12T15:08:17.527Z,16.42
2024-03-12T15:10:45.882Z,11.18
2024-03-12T15:13:14.801Z,12.30
2024-03-12T15:15:43.309Z,14.85
2024-03-12T15:18:14.326Z,14.02
2024-03-12T15:20:47.429Z,14.07
2024-03-12T15:23:15.740Z,15.45
2024-03-12T15:25:44.195Z,15.35
2024-03-12T15:28:12.525Z,14.57
2024-03-12T15:30:43.400Z,13.90
2024-03-12T15:33:13.447Z,12.27
2024-03-12T15:35:43.185Z,14.10
2024-03-12T15:38:11.321Z,10.23
2024-03-12T15:40:39.457Z,14.43
2024-03-12T15:43:10.503Z,12.75
2024-03-12T15:45:39.020Z,12.55
2024-03-12T15:48:08.964Z,13.98
2024-03-12T15:50:39.364Z,14.63
2024-03-12T15:53:08.936Z,14.43
2024-03-12T15:55:37.176Z,16.15
2024-03-12T15:58:06.075Z,16.52
2024-03-12T16:00:35.689Z,16.10
2024-03-12T16:03:04.237Z,14.35
2024-03-12T16:05:32.548Z,16.02
2024-03-12T16:08:04.469Z,16.40
2024-03-12T16:10:34.357Z,15.25
2024-03-12T16:13:02.973Z,15.48
2024-03-12T16:15:32.807Z,15.63
2024-03-12T16:18:01.288Z,15.10
2024-03-12T16:20:29.514Z,13.20
2024-03-12T16:22:57.656Z,16.10
2024-03-12T16:25:26.071Z,15.50
2024-03-12T16:27:55.735Z,17.42
2024-03-12T16:30:24.034Z,15.48
2024-03-12T16:32:54.725Z,14.90
2024-03-12T16:35:24.624Z,16.02
2024-03-12T16:37:52.907Z,15.15
2024-03-12T16:40:21.408Z,14.88
2024-03-12T16:42:49.880Z,13.80
2024-03-12T16:45:20.503Z,15.38
2024-03-12T16:47:48.904Z,14.75
2024-03-12T16:50:17.477Z,16.80
2024-03-12T16:52:47.523Z,16.15
2024-03-12T16:55:17.613Z,15.23
2024-03-12T16:57:46.496Z,16.70
2024-03-12T17:00:15.750Z,17.08
2024-03-12T17:02:46.716Z,16.48
2024-03-12T17:05:18.406Z,16.80
2024-03-12T17:07:51.769Z,16.65
2024-03-12T17:10:22.765Z,18.10
2024-03-12T17:12:51.920Z,15.60
2024-03-12T17:15:21.972Z,15.77
2024-03-12T17:17:52.350Z,17.23
2024-03-12T17:20:20.751Z,17.80
2024-03-12T17:22:49.555Z,16.90
2024-03-12T17:25:20.116Z,17.52
2024-03-12T17:27:50.464Z,18.58
2024-03-12T17:30:21.162Z,17.00
2024-03-12T17:32:51.528Z,16.15
2024-03-12T17:35:20.531Z,17.77
2024-03-12T17:37:55.691Z,18.10
2024-03-12T17:42:54.814Z,19.13
2024-03-12T17:45:24.962Z,17.48
2024-03-12T17:47:56.496Z,21.65
2024-03-12T17:50:26.396Z,21.00
2024-03-12T17:53:00.401Z,23.50
2024-03-12T17:55:29.892Z,22.52
2024-03-12T17:58:00.574Z,21.15
2024-03-12T18:00:29.341Z,23.20
2024-03-12T18:03:00.453Z,23.02
2024-03-12T18:05:29.502Z,24.90
2024-03-12T18:08:02.929Z,24.27
2024-03-12T18:10:35.016Z,24.55
2024-03-12T18:13:04.374Z,25.15
2024-03-12T18:15:32.891Z,24.42
2024-03-12T18:18:03.170Z,25.58
2024-03-12T18:20:31.366Z,26.40
2024-03-12T18:23:00.608Z,25.88
2024-03-12T18:25:31.752Z,26.08
2024-03-12T18:28:00.348Z,26.90
2024-03-12T18:30:28.655Z,23.75
2024-03-12T18:32:56.910Z,26.83
2024-03-12T18:35:26.814Z,26.23
2024-03-12T18:37:55.051Z,25.60
2024-03-12T18:40:23.889Z,25.45
2024-03-12T18:42:52.580Z,25.38
2024-03-12T18:45:23.842Z,25.40
2024-03-12T18:47:54.545Z,26.80
2024-03-12T18:50:25.786Z,26.52
2024-03-12T18:52:56.529Z,26.15
2024-03-12T18:55:27.922Z,28.83
2024-03-12T18:57:58.326Z,25.17
2024-03-12T19:00:27.638Z,28.40
2024-03-12T19:03:05.930Z,26.17
2024-03-12T19:05:37.232Z,27.05
2024-03-12T19:08:07.815Z,27.17
2024-03-12T19:10:37.343Z,24.83
2024-03-12T19:13:07.584Z,25.17
2024-03-12T19:15:38.037Z,25.83
2024-03-12T19:18:13.978Z,26.10
2024-03-12T19:20:43.445Z,26.55
2024-03-12T19:23:14.159Z,25.17
2024-03-12T19:25:42.612Z,25.00
2024-03-12T19:28:11.924Z,25.75
2024-03-12T19:30:40.994Z,28.98
2024-03-12T19:33:14.688Z,30.00
2024-03-12T19:35:43.457Z,27.50
2024-03-12T19:38:14.388Z,28.67
2024-03-12T19:40:43.249Z,29.98
2024-03-12T19:43:12.448Z,29.50
2024-03-12T19:45:42.165Z,28.75
2024-03-12T19:48:13.683Z,30.77
2024-03-12T19:50:42.534Z,33.38
2024-03-12T19:53:12.171Z,34.70
2024-03-12T19:55:43.618Z,34.10
2024-03-12T19:58:12.045Z,34.10
2024-03-12T20:00:41.348Z,34.33
2024-03-12T20:03:13.155Z,33.35
2024-03-12T20:05:42.631Z,37.28
2024-03-12T20:08:13.379Z,32.92
2024-03-12T20:10:42.055Z,33.38
2024-03-12T20:13:10.880Z,34.75
2024-03-12T20:15:44.442Z,32.58
2024-03-12T20:18:13.753Z,32.97
2024-03-12T20:20:42.393Z,37.00
2024-03-12T20:23:12.294Z,36.42
2024-03-12T20:25:41.147Z,37.40
2024-03-12T20:28:11.068Z,37.22
2024-03-12T20:30:40.973Z,39.22
2024-03-12T20:33:11.875Z,38.95
2024-03-12T20:35:40.343Z,40.92
2024-03-12T20:38:10.233Z,24.83
2024-03-12T20:40:40.976Z,1.15
2024-03-12T20:43:09.447Z,1.35
2024-03-12T20:45:39.947Z,2.15
2024-03-12T20:48:11.192Z,0.40
2024-03-12T20:50:40.986Z,1.70
2024-03-12T20:53:10.003Z,2.40
2024-03-12T20:55:40.267Z,0.60
2024-03-12T20:58:08.666Z,0.28
2024-03-12T21:00:38.626Z,0.40
2024-03-12T21:03:10.624Z,1.52
2024-03-12T21:05:40.393Z,3.45
2024-03-12T21:08:09.004Z,1.20
2024-03-12T21:10:39.501Z,1.55
2024-03-12T21:13:09.170Z,0.98
2024-03-12T21:15:37.890Z,0.93
2024-03-12T21:18:07.245Z,0.10
2024-03-12T21:20:36.198Z,0.93
2024-03-12T21:23:05.244Z,1.00
2024-03-12T21:25:34.658Z,1.15
2024-03-12T21:28:04.258Z,0.90
2024-03-12T21:30:35.877Z,0.20
2024-03-12T21:33:04.840Z,1.55
2024-03-12T21:35:33.191Z,1.08
2024-03-12T21:38:01.549Z,1.20
2024-03-12T21:40:30.537Z,1.00
2024-03-12T21:42:58.947Z,1.90
2024-03-12T21:45:27.203Z,0.43
2024-03-12T21:47:56.789Z,0.32
2024-03-12T21:50:24.933Z,0.20
2024-03-12T21:52:53.288Z,0.95
2024-03-12T21:55:22.682Z,0.10
2024-03-12T21:57:51.797Z,1.38
2024-03-12T22:00:25.080Z,1.77
2024-03-12T22:02:53.673Z,0.30
2024-03-12T22:05:24.295Z,0.90
2024-03-12T22:07:53.281Z,0.95
2024-03-12T22:10:22.305Z,0.20
2024-03-12T22:12:51.331Z,1.40
2024-03-12T22:15:20.357Z,1.48
2024-03-12T22:17:52.067Z,1.35
2024-03-12T22:20:21.084Z,0.10
2024-03-12T22:22:51.517Z,0.40
2024-03-12T22:25:20.999Z,0.82
2024-03-12T22:27:50.257Z,0.63
2024-03-12T22:30:19.077Z,2.33
2024-03-12T22:32:48.188Z,0.63
2024-03-12T22:35:17.241Z,1.15
2024-03-12T22:37:48.949Z,0.68
2024-03-12T22:40:20.164Z,1.55
2024-03-12T22:42:49.549Z,0.70
2024-03-12T22:45:18.588Z,1.65
2024-03-12T22:47:47.357Z,0.77
2024-03-12T22:50:18.492Z,0.50
2024-03-12T22:52:49.146Z,0.10
2024-03-12T22:55:19.963Z,0.68
2024-03-12T22:57:49.009Z,0.93
2024-03-12T23:00:42.124Z,0.43
2024-03-12T23:03:14.418Z,0.30
2024-03-12T23:05:43.481Z,1.38
2024-03-12T23:08:15.424Z,3.08
2024-03-12T23:10:45.997Z,1.25
2024-03-12T23:13:17.572Z,0.10
2024-03-12T23:15:46.446Z,0.30
2024-03-12T23:18:14.813Z,0.20
2024-03-12T23:20:46.026Z,0.50
2024-03-12T23:23:14.743Z,1.02
2024-03-12T23:25:45.286Z,0.30
2024-03-12T23:28:14.247Z,1.63
2024-03-12T23:30:43.459Z,1.50
2024-03-12T23:33:11.861Z,0.28
2024-03-12T23:35:40.149Z,0.30
2024-03-12T23:38:08.351Z,0.38
2024-03-12T23:40:36.543Z,1.27
2024-03-12T23:43:06.354Z,0.00
2024-03-12T23:45:34.571Z,0.10
2024-03-12T23:48:04.277Z,0.65
2024-03-12T23:50:32.990Z,0.63
2024-03-12T23:53:02.909Z,0.73
2024-03-12T23:55:31.233Z,0.95
2024-03-12T23:58:01.222Z,0.65
